Tiempo atmosférico en la estación meteorológica de Calamocha, Teruel (890 m.)



Fecha
DESCASC
Temp. máxima en grados centígrados (hora)
DESCASC
Temp. mínima en grados centígrados (hora)
DESCASC
Temp. media en grados centígrados
DESCASC
Racha de viento máxima en m/sg (hora)
DESCASC
Velocidad máxima media en intervalos de 10 minutos(hora)
DESCASC
Precipitaciones diarias en mm
DESCASC
Precipitaciones de 00:00 a 06:00 en mm
DESCASC
Precipitaciones de 06:00 a 12:00 en mm
DESCASC
Precipitaciones de 12:00 a 18:00 en mm
DESCASC
Precipitaciones de 18:00 a 24:00 en mm
DESCASC
31-03-2020 7.8 (19:10) -1.2 (04:20) 3.3 11.67 (21:20) 8.33 (21:00) 5.6 4.2 1.2 0.2 0
29-03-2020 16.4 (16:20) -1.4 (-00:0) 7.5 11.94 (20:10) 6.67 (20:20) 0 0 0 0 0
28-03-2020 14.1 (15:10) -1.1 (-00:0) 6.5 5.83 (17:30) 3.33 (16:00) 0 0 0 0 0
27-03-2020 11.8 (16:00) -2.5 (-00:0) 4.7 6.94 (17:40) 5 (17:40) 0 0 0 0 0
26-03-2020 9.6 (15:50) 0.5 (00:00) 5.1 12.22 (12:20) 5.83 (18:40) 0 0 0 0 0
25-03-2020 12.3 (16:10) 1.4 (00:00) 6.9 8.33 (14:00) 5.28 (13:10) 0 0 0 0 0
24-03-2020 11.2 (12:50) 1.8 (00:00) 6.5 8.33 (09:00) 5.83 (10:40) 0 0 0 0 0
23-03-2020 12.2 (13:00) 7 (00:00) 9.6 9.17 (13:10) 6.67 (13:10) 12 0 0 10.8 1.2
22-03-2020 12.7 (12:10) 7 (06:10) 9.8 8.33 (15:20) 6.39 (15:20) 1 1 0 0 0
21-03-2020 12.8 (15:20) 2.8 (00:00) 7.8 -- (--) -- (--) -- 0 0 -- 0
20-03-2020 15 (16:10) 3.7 (00:00) 9.4 7.78 (15:30) 5.56 (19:50) 0 0 0 0 0
19-03-2020 17.5 (16:30) 1.3 (00:00) 9.4 9.72 (18:50) 7.5 (18:50) 0 0 0 0 0
18-03-2020 16.6 (16:10) 4.3 (00:00) 10.5 7.78 (11:50) 5.28 (11:50) 0 0 0 0 0
17-03-2020 12 (17:10) 3.5 (00:00) 7.8 11.94 (11:50) 8.33 (11:50) 8.2 6.8 0.6 0.8 0
16-03-2020 9.4 (08:10) 0.8 (00:00) 5.1 9.72 (09:50) 6.11 (10:00) 28.4 6.2 14.4 7.8 0
15-03-2020 20.4 (14:50) 0.9 (00:00) 10.6 14.17 (23:10) 8.33 (23:10) 1 0 0 0 1
14-03-2020 18.6 (15:10) 1.2 (00:00) 9.9 6.67 (15:50) 3.89 (16:10) 0 0 0 0 0
13-03-2020 17.7 (14:30) 6.6 (23:59) 12.2 8.33 (16:30) 4.17 (16:10) 0 0 0 0 0
12-03-2020 26.8 (14:30) 4.7 (00:00) 15.7 9.44 (17:10) 6.11 (17:20) 0 0 0 0 0
11-03-2020 25.4 (16:30) 2 (00:00) 13.7 6.94 (12:40) 3.61 (12:30) 0 0 0 0 0
10-03-2020 21.4 (17:20) -0.6 (-00:0) 10.4 5.28 (17:10) 3.06 (17:20) 0 0 0 0 0
09-03-2020 14 (15:20) 4 (00:00) 9 12.22 (15:00) 5.83 (12:00) 0 0 0 0 0
08-03-2020 16.3 (16:40) -3.1 (-00:0) 6.6 10 (14:00) 5 (14:40) 0 0 0 0 0
07-03-2020 12.2 (15:30) 2.8 (00:00) 7.5 11.39 (13:20) 5.28 (13:40) 0 0 0 0 0
06-03-2020 8.4 (15:30) 3.2 (00:00) 5.8 18.89 (10:20) 12.22 (12:40) 1 0 0.4 0.6 0
05-03-2020 14.5 (13:30) 6.1 (00:00) 10.3 21.11 (15:50) 12.5 (16:00) 0.6 0 0 0.4 0.2
04-03-2020 17.2 (15:20) 7 (04:10) 12.1 12.22 (12:20) 7.22 (12:30) 0 0 0 0 0
03-03-2020 15.6 (17:00) 0.3 (00:00) 8 22.5 (17:00) 9.72 (18:50) 0.6 0 0.6 0 0

Gráficas

Temp. máximas Temp. mínimas Temp. medias Precipitaciones Rachas de viento máximas Velocidades máximas media en intervalos de 10 minutos

Datos horarios

Fecha y hora oficial Temperatura (ºC) Velocidad del viento (km/h) Dirección del viento Racha (km/h) Dirección de racha Precipitación (mm) Presión (hPa) Tendencia (hPa) Humedad (%)
2020-04-01 23:00:00 7 3 Norte 6 Norte 0 911.1 1.2 91
2020-04-01 22:00:00 7.2 4 Norte 9 Nordeste 0 910.8 1.3 90
2020-04-01 21:00:00 7.4 9 Este 20 Este 0 910 0.5 89
2020-04-01 20:00:00 8.5 10 Nordeste 17 Nordeste 0 909.9 0.7 84
2020-04-01 19:00:00 8.8 13 Nordeste 24 Nordeste 1.6 909.5 0.2 86
2020-04-01 18:00:00 9 19 Nordeste 32 Este 0 909.5 -0.7 81
2020-04-01 17:00:00 10.2 21 Este 29 Nordeste 0 909.2 -1.3 75
2020-04-01 16:00:00 11.4 11 Este 23 Este 0 909.3 -1.8 68
2020-04-01 15:00:00 9.5 17 Este 24 Este 0 910.2 -1.2 78
2020-04-01 14:00:00 9 8 Nordeste 17 Nordeste 0.2 910.5 -0.6 86
2020-04-01 13:00:00 6.8 4 Norte 9 Norte 2.4 911.1 0.4 96
2020-04-01 12:00:00 6.7 4 Noroeste 8 Oeste 0.4 911.4 0.8 93
2020-04-01 11:00:00 6.5 2 Noroeste 7 Oeste 0.4 911.1 0.9 93
2020-04-01 10:00:00 5.9 4 Noroeste 8 Nordeste 0.2 910.7 0.4 96
2020-04-01 09:00:00 5.5 3 Noroeste 8 Norte 2.6 910.6 0.4 96
2020-04-01 08:00:00 5.8 7 Este 10 Este 0.6 910.2 0.1 96
2020-04-01 07:00:00 6 2 Nordeste 14 Este 5.2 910.3 0.1 95
2020-04-01 06:00:00 6 10 Este 12 Este 4 910.2 -0.3 94
2020-04-01 05:00:00 6.2 12 Sudeste 19 Este 0 910.1 -0.5 91
2020-04-01 04:00:00 6.3 15 Este 24 Este 0.4 910.2 -0.7 91
2020-04-01 03:00:00 6.5 13 Este 26 Este 0 910.5 -0.4 91
2020-04-01 02:00:00 6.4 7 Este 17 Este 0 910.6 -0.2 89
2020-04-01 01:00:00 6.6 2 Noroeste 18 Sudeste 0 910.9 0.5 87
2020-04-01 00:00:00 6.4 6 Sudeste 29 Este 0 910.9 1.4 88
2020-03-31 23:00:00 6.1 18 Este 31 Este 0 910.8 1.7 88
2020-03-31 22:00:00 6.5 21 Este 42 Este 0 910.4 1.4 86
2020-03-31 21:00:00 6.4 30 Este 41 Este 0 909.5 0.7 85
2020-03-31 20:00:00 6.6 28 Este 40 Este 0 909.1 0.3 85
2020-03-31 19:00:00 7.7 12 Sudeste 21 Este 0 909 0.1 82
2020-03-31 18:00:00 7.7 15 Sudeste 29 Este 0 908.8 -0.2 82
2020-03-31 17:00:00 6.1 24 Este 35 Este 0.2 908.8 -0.3 87
2020-03-31 16:00:00 6.4 14 Este 21 Este 0 908.9 -0.3 84
2020-03-31 15:00:00 5.4 6 Norte 14 Este 0 909 -0.3 85
2020-03-31 14:00:00 3.6 3 Noroeste 6 Oeste 0 909.1 0 88
2020-03-31 13:00:00 2.1 4 Noroeste 10 Noroeste 0 909.2 0.2 91
2020-03-31 12:00:00 1.5 4 Norte 10 Norte 0.2 909.3 0.5 91
2020-03-31 11:00:00 0.6 3 Norte 17 Sudeste 0.2 909.1 0.6 92
2020-03-31 10:00:00 0 6 Norte 10 Norte 0.6 909 0.5 93
2020-03-31 09:00:00 -0.4 3 Norte 9 Noroeste 0 908.8 0.1 93
2020-03-31 08:00:00 -0.9 4 Noroeste 8 Noroeste 0 908.5 -0.3 94
2020-03-31 07:00:00 -1.1 3 Norte 8 Noroeste 0.2 908.5 -1.2 95
2020-03-31 06:00:00 -1.1 3 Noroeste 6 Noroeste 0 908.7 -1.4 96
2020-03-31 05:00:00 -1.2 3 Noroeste 6 Norte 0.4 908.8 -1.9 95
2020-03-31 04:00:00 -1.1 2 Norte 7 Norte 1.2 909.7 -1.6 95
2020-03-31 03:00:00 -1 2 Norte 11 Norte 1.4 910.1 -1.3 96
2020-03-31 02:00:00 -0.9 6 Norte 18 Norte 1 910.7 -1 94
2020-03-31 01:00:00 -0.5 7 Norte 20 Nordeste 0.2 911.3 -0.9 90
2020-03-31 00:00:00 0 9 Nordeste 17 Nordeste 0 911.4 -0.6 88
2020-03-30 23:00:00 0.1 5 Norte 10 Norte 0 911.7 -0.1 92
2020-03-30 22:00:00 0.3 4 Norte 10 Norte 0.2 912.2 0.4 91
2020-03-30 21:00:00 0.4 4 Norte 8 Noroeste 0.2 912 0 92
2020-03-30 20:00:00 0.9 3 Noroeste 8 Oeste 0 911.8 -0.2 88
2020-03-30 19:00:00 1 4 Norte 14 Nordeste 0 911.8 -0.5 86
2020-03-30 18:00:00 0.5 8 Norte 24 Norte 0 912 -0.6 90
2020-03-30 17:00:00 1.9 13 Nordeste 23 Nordeste 0 912 -1.4 73
2020-03-30 16:00:00 2.8 10 Norte 23 Nordeste 0 912.3 -1.5 60
2020-03-30 15:00:00 3.9 8 Norte 27 Nordeste 0 912.6 -1.5 56
2020-03-30 14:00:00 1.9 7 Norte 22 Nordeste 0 913.4 -0.7 67
2020-03-30 13:00:00 1.6 9 Norte 24 Nordeste 0 913.8 0.3 74
2020-03-30 12:00:00 1.1 14 Nordeste 26 Norte 0 914.1 0.8 75
2020-03-30 11:00:00 1.1 12 Norte 33 Nordeste 0 914.1 1.1 73
2020-03-30 10:00:00 1.4 8 Norte 24 Norte 0 913.5 0.7 68
2020-03-30 09:00:00 1.4 8 Norte 23 Norte 0 913.3 0.5 72
2020-03-30 08:00:00 1.6 8 Norte 27 Nordeste 0 913 -0.2 80
2020-03-30 07:00:00 2.1 12 Norte 28 Nordeste 0 912.8 -0.6 82
2020-03-30 06:00:00 2.9 15 Nordeste 23 Nordeste 0 912.8 -1.1 86
2020-03-30 05:00:00 3.8 4 Noroeste 9 Noroeste 0 913.2 -1 88
2020-03-30 04:00:00 3.2 2 Norte 9 Nordeste 0 913.4 -1.2 88
2020-03-30 03:00:00 3.4 3 Nordeste 8 Nordeste 0 913.9 -0.9 89
2020-03-30 02:00:00 3.9 2 Norte 5 Sudeste 0 914.2 -0.6 88
2020-03-30 01:00:00 3.9 3 Sudeste 4 Sudeste 0 914.6 0 89
2020-03-30 00:00:00 4.7 2 Este 9 Nordeste 0 914.8 0.9 83
2020-03-29 23:00:00 5.6 4 Norte 13 Nordeste 0 914.8 1.3 81
2020-03-29 22:00:00 6.7 4 Norte 19 Nordeste 0 914.6 1.5 77
2020-03-29 21:00:00 7.8 16 Norte 43 Norte 0 913.9 0.9 72
2020-03-29 20:00:00 10 24 Nordeste 38 Nordeste 0 913.5 0.4 59
2020-03-29 19:00:00 13 23 Nordeste 38 Nordeste 0 913.1 -0.4 40
2020-03-29 18:00:00 14.9 13 Norte 32 Nordeste 0 913 -1.2 34
2020-03-29 17:00:00 16.1 11 Norte 27 Noroeste 0 913.1 -1.6 33
2020-03-29 16:00:00 16.2 11 Noroeste 27 Nordeste 0 913.5 -1.9 32
2020-03-29 15:00:00 15.7 13 Norte 28 Norte 0 914.2 -1.8 35
2020-03-29 14:00:00 14.9 9 Norte 26 Noroeste 0 914.7 -1.8 41
2020-03-29 13:00:00 13.5 8 Norte 17 Norte 0 915.4 -1.3 49
2020-03-29 12:00:00 10.9 5 Sudeste 9 Sudeste 0 916 -0.8 59
2020-03-29 11:00:00 7.9 4 Sur 12 Sur 0 916.5 -0.1 73
2020-03-29 10:00:00 4.2 5 Sur 10 Sur 0 916.7 0.3 80
2020-03-29 09:00:00 0.4 0 Calma 4 Sudeste 0 916.8 0.4 90
2020-03-29 08:00:00 -1.3 3 Sudeste 6 Sudeste 0 916.6 0 92
2020-03-29 07:00:00 -1.1 4 Sur 6 Sur 0 916.4 -0.5 90
2020-03-29 06:00:00 -0.8 2 Sur 9 Sudeste 0 916.4 -0.8 90
2020-03-29 05:00:00 -0.5 4 Sudeste 8 Sudeste 0 916.6 -0.7 92
2020-03-29 03:00:00 0.8 2 Sudeste 5 Oeste 0 917.2 0 90
2020-03-29 01:00:00 1.8 3 Sur 6 Sur 0 917.3 0.2 85
2020-03-29 00:00:00 2.7 2 Sudeste 6 Nordeste 0 917.5 0.8 83
2020-03-28 23:00:00 3.7 0 Calma 4 Oeste 0 917.2 1.1 81
2020-03-28 22:00:00 5.4 3 Sudoeste 7 Sur 0 917.1 1.5 75
2020-03-28 21:00:00 7.3 2 Sudoeste 9 Nordeste 0 916.7 1.5 67
2020-03-28 20:00:00 8.5 8 Nordeste 10 Este 0 916.1 1.3 65
2020-03-28 19:00:00 12 8 Este 14 Este 0 915.6 0.8 46
2020-03-28 18:00:00 12 3 Este 21 Nordeste 0 915.2 0.2 45
2020-03-28 17:00:00 12.7 5 Sudeste 17 Este 0 914.8 -0.7 44
2020-03-28 16:00:00 12.8 12 Este 21 Este 0 914.8 -0.9 43
2020-03-28 15:00:00 13.8 10 Sudeste 18 Nordeste 0 915 -1 39
2020-03-28 14:00:00 12.4 7 Oeste 13 Noroeste 0 915.5 -0.6 45
2020-03-28 13:00:00 11.5 8 Oeste 17 Norte 0 915.7 -0.4 47
2020-03-28 12:00:00 11.2 5 Este 14 Noroeste 0 916 0.2 46
2020-03-28 11:00:00 9.5 4 Noroeste 8 Noroeste 0 916.1 0.4 47
2020-03-28 10:00:00 6.3 4 Noroeste 10 Noroeste 0 916.1 0.9 72
2020-03-28 09:00:00 3.5 3 Sudoeste 9 Sur 0 915.8 0.9 82
2020-03-28 08:00:00 1.7 3 Este 6 Oeste 0 915.7 1.1 89
2020-03-28 07:00:00 1.1 0 Calma 4 Norte 0 915.2 0.6 90
2020-03-28 06:00:00 1 3 Sur 5 Sur 0 914.9 0.4 88
2020-03-28 05:00:00 0.6 0 Calma 3 Nordeste 0 914.6 0.2 90
2020-03-28 04:00:00 -0.1 0 Calma 4 Norte 0 914.6 0.3 91
2020-03-28 03:00:00 -0.9 3 Norte 6 Sudeste 0 914.5 0.5 91
2020-03-28 02:00:00 -0.7 4 Sur 6 Sudeste 0 914.4 0.5 86
2020-03-28 01:00:00 0.2 4 Sur 9 Sudeste 0 914.3 0.9 86
2020-03-28 00:00:00 1.2 3 Sur 7 Sur 0 914 1.3 84
2020-03-27 23:00:00 2.5 4 Sur 9 Sudeste 0 913.9 2.1 79
2020-03-27 22:00:00 3.5 4 Sudeste 6 Este 0 913.4 2.2 77
2020-03-27 21:00:00 5.5 4 Noroeste 20 Nordeste 0 912.7 2.1 67
2020-03-27 20:00:00 6.7 14 Nordeste 19 Este 0 911.8 1.6 63
2020-03-27 19:00:00 9 8 Este 20 Sudeste 0 911.2 1 49
2020-03-27 18:00:00 9 9 Este 25 Este 0 910.6 0.1 47
2020-03-27 17:00:00 10.2 7 Norte 20 Noroeste 0 910.2 -0.6 44
2020-03-27 16:00:00 11.7 10 Noroeste 20 Norte 0 910.2 -0.8 41
2020-03-27 15:00:00 10.7 5 Sudeste 15 Nordeste 0 910.5 -0.8 39
2020-03-27 14:00:00 10.2 6 Este 21 Sudeste 0 910.8 -0.7 45
2020-03-27 13:00:00 9 8 Sudoeste 16 Noroeste 0 911 -0.7 47
2020-03-27 12:00:00 7.7 8 Norte 19 Oeste 0 911.3 -0.2 56
2020-03-27 11:00:00 5.5 5 Nordeste 13 Nordeste 0 911.5 0.2 57
2020-03-27 10:00:00 3.9 4 Norte 8 Noroeste 0 911.7 0.9 66
2020-03-27 09:00:00 1.5 2 Nordeste 6 Norte 0 911.5 1.2 70
2020-03-27 08:00:00 -0.5 0 Calma 9 Este 0 911.3 1.6 80
2020-03-27 07:00:00 -1.7 2 Sudeste 8 Nordeste 0 910.8 0.8 83
2020-03-27 06:00:00 -1.6 2 Noroeste 9 Este 0 910.3 0.6 84
2020-03-27 05:00:00 -2 4 Este 12 Sudeste 0 909.7 -0.2 86
2020-03-27 04:00:00 -2.4 3 Sudeste 7 Norte 0 910 0 82
2020-03-27 03:00:00 -1.8 5 Norte 7 Norte 0 909.7 -0.3 80
2020-03-27 02:00:00 -1.4 4 Nordeste 7 Norte 0 909.9 -0.2 79
2020-03-27 01:00:00 -0.5 3 Sudeste 11 Norte 0 910 0.1 74
2020-03-27 00:00:00 0.5 4 Norte 9 Norte 0 910 0.6 66
2020-03-26 23:00:00 1.5 4 Nordeste 15 Noroeste 0 910.1 1.6 61
2020-03-26 22:00:00 3 6 Noroeste 19 Norte 0 909.9 1.9 55
2020-03-26 21:00:00 4 4 Norte 21 Nordeste 0 909.4 2.3 55
2020-03-26 20:00:00 5.1 14 Nordeste 29 Nordeste 0 908.5 1.8 53
2020-03-26 19:00:00 6.9 18 Nordeste 32 Nordeste 0 908 1.5 45
2020-03-26 18:00:00 8.3 15 Norte 32 Nordeste 0 907.1 0.7 41
2020-03-26 17:00:00 8.4 16 Norte 35 Nordeste 0 906.7 -0.3 41
2020-03-26 16:00:00 9 17 Norte 43 Noroeste 0 906.5 -0.9 39
2020-03-26 15:00:00 9 15 Norte 36 Norte 0 906.4 -1.3 44
2020-03-26 14:00:00 7.1 14 Norte 42 Noroeste 0 907 -0.7 50
2020-03-26 13:00:00 7 15 Norte 44 Norte 0 907.4 -0.5 60
2020-03-26 12:00:00 5.3 15 Norte 31 Noroeste 0 907.7 0 67
2020-03-26 11:00:00 5.2 6 Noroeste 22 Noroeste 0 907.7 -0.2 71
2020-03-26 10:00:00 3.7 10 Noroeste 23 Noroeste 0 907.9 -0.1 76
2020-03-26 09:00:00 3.1 4 Nordeste 12 Norte 0 907.7 -0.5 79
2020-03-26 08:00:00 2.5 2 Sudeste 9 Sur 0 907.9 -0.7 84
2020-03-26 07:00:00 1.8 6 Sur 11 Sudeste 0 908 -0.9 84
2020-03-26 06:00:00 1.1 2 Sur 6 Sudoeste 0 908.2 -1.1 86
2020-03-26 05:00:00 1.3 3 Sudoeste 15 Nordeste 0 908.6 -1.1 84
2020-03-26 04:00:00 2.4 5 Norte 15 Norte 0 908.9 -1.3 78
2020-03-26 03:00:00 2.1 4 Nordeste 7 Noroeste 0 909.3 -1.5 90
2020-03-26 02:00:00 1.1 2 Norte 7 Noroeste 0 909.7 -1.2 91
2020-03-26 01:00:00 1.6 3 Sur 10 Este 0 910.2 -0.8 86
2020-03-26 00:00:00 1.9 5 Sudoeste 9 Sudoeste 0 910.8 -0.3 85
2020-03-25 23:00:00 2.2 0 Calma 8 Oeste 0 910.9 -0.1 87
2020-03-25 22:00:00 3 4 Sudeste 8 Este 0 911 0 79
2020-03-25 21:00:00 5 3 Sudeste 8 Sudoeste 0 911.1 0.1 71
2020-03-25 20:00:00 7.1 3 Nordeste 12 Noroeste 0 911 -0.4 63
2020-03-25 19:00:00 9.4 5 Norte 28 Norte 0 911 -0.6 49
2020-03-25 18:00:00 10.5 11 Norte 29 Norte 0 911 -1.3 52
2020-03-25 17:00:00 11.5 13 Nordeste 27 Norte 0 911.4 -1.2 47
2020-03-25 16:00:00 11.7 8 Norte 24 Noroeste 0 911.6 -1.6 47
2020-03-25 15:00:00 10.7 10 Norte 27 Nordeste 0 912.3 -0.9 50
2020-03-25 14:00:00 9.9 17 Norte 30 Norte 0 912.6 -0.7 45
2020-03-25 13:00:00 8.6 16 Nordeste 27 Nordeste 0 913.2 -0.5 72
2020-03-25 12:00:00 10.2 10 Norte 28 Norte 0 913.2 -0.5 64
2020-03-25 11:00:00 8.2 8 Norte 20 Noroeste 0 913.3 -0.1 75
2020-03-25 10:00:00 7.1 4 Norte 8 Noroeste 0 913.7 0.4 78
2020-03-25 09:00:00 5.5 4 Sur 12 Sudeste 0 913.7 0.3 87
2020-03-25 08:00:00 4.5 8 Sudeste 12 Sudeste 0 913.4 -0.1 88
2020-03-25 07:00:00 4.5 4 Sur 10 Sudoeste 0 913.3 -0.9 86
2020-03-25 06:00:00 4.4 7 Sudeste 9 Este 0 913.4 -1.2 89
2020-03-25 05:00:00 4.2 5 Sudoeste 14 Sudeste 0 913.5 -1.5 89
2020-03-25 04:00:00 3.5 2 Oeste 10 Sudeste 0 914.2 -0.8 92
2020-03-25 03:00:00 3.3 4 Sur 9 Sudeste 0 914.6 -0.4 90
2020-03-25 02:00:00 2.4 4 Sudeste 10 Sur 0 915 -0.2 93
2020-03-25 01:00:00 1.6 5 Sudeste 7 Sudeste 0 915 -0.1 94
2020-03-25 00:00:00 1.8 3 Oeste 10 Sudeste 0 915 -0.3 91
2020-03-24 23:00:00 2.4 7 Este 11 Sudeste 0 915.2 0.2 89
2020-03-24 22:00:00 3.8 4 Sur 10 Sur 0 915.1 0.3 84
2020-03-24 21:00:00 5.3 3 Sudoeste 10 Sudoeste 0 915.3 0.8 81
2020-03-24 20:00:00 6.5 8 Este 19 Sudeste 0 915 0.5 79
2020-03-24 19:00:00 8.3 15 Sudeste 21 Sudeste 0 914.8 0.1 72
2020-03-24 18:00:00 9.1 15 Este 22 Sudeste 0 914.5 -0.4 70
2020-03-24 17:00:00 9.5 14 Este 23 Este 0 914.5 -1.1 69
2020-03-24 16:00:00 9.8 11 Este 21 Este 0 914.7 -1.1 68
2020-03-24 15:00:00 10.1 15 Este 25 Este 0 914.9 -1.2 67
2020-03-24 14:00:00 9.3 16 Este 26 Este 0 915.6 -0.6 74
2020-03-24 13:00:00 10.6 15 Este 28 Sudeste 0 915.8 -0.5 66
2020-03-24 12:00:00 9.9 13 Este 24 Sudeste 0 916.1 0.1 69
2020-03-24 11:00:00 9.5 18 Este 28 Sudeste 0 916.2 0.5 73
2020-03-24 10:00:00 9 15 Este 26 Nordeste 0 916.3 0.7 76
2020-03-24 09:00:00 8.1 15 Este 30 Este 0 916 0.5 79
2020-03-24 08:00:00 7.6 12 Nordeste 21 Este 0 915.7 0.2 83
2020-03-24 07:00:00 6.9 3 Oeste 5 Noroeste 0 915.6 -0.1 88
2020-03-24 06:00:00 6.9 4 Norte 21 Nordeste 0 915.5 -0.1 87
2020-03-24 05:00:00 7.6 10 Este 20 Este 0 915.5 -0.3 83
2020-03-24 04:00:00 7.5 5 Este 8 Sudeste 0 915.7 -0.5 85
2020-03-24 03:00:00 7.4 5 Este 27 Nordeste 0 915.6 -0.7 84
2020-03-24 02:00:00 7.9 16 Este 26 Este 0 915.8 -0.3 83
2020-03-24 01:00:00 8.2 15 Este 22 Este 0 916.2 0.4 88
2020-03-24 00:00:00 8.2 10 Este 24 Este 0 916.3 0.5 87
2020-03-23 23:00:00 8 13 Este 23 Este 0 916.1 0.6 87
2020-03-23 22:00:00 7.6 6 Nordeste 14 Este 0 915.8 0.7 88
2020-03-23 21:00:00 7.9 2 Nordeste 8 Nordeste 0 915.8 1.3 94
2020-03-23 20:00:00 8 2 Noroeste 10 Sudeste 0.4 915.5 1.1 94
2020-03-23 19:00:00 7.9 2 Noroeste 12 Nordeste 0.8 915.1 0.9 93
2020-03-23 18:00:00 8 13 Este 19 Este 6.2 914.5 0 90
2020-03-23 17:00:00 9.1 3 Nordeste 22 Sudeste 2 914.4 -0.3 87
2020-03-23 16:00:00 9.7 12 Sudeste 18 Sudeste 2 914.2 -0.6 82
2020-03-23 15:00:00 10.5 10 Sur 24 Sudeste 0.4 914.5 -0.7 82
2020-03-23 14:00:00 11.3 19 Este 33 Sudeste 0.2 914.7 -0.4 71
2020-03-23 13:00:00 12.2 21 Este 30 Este 0 914.8 -0.3 66
2020-03-23 12:00:00 10.5 16 Este 32 Nordeste 0 915.2 0.7 71
2020-03-23 11:00:00 9.2 19 Este 30 Este 0 915.1 0.9 76
2020-03-23 10:00:00 8.9 10 Este 17 Este 0 915.1 1.3 77
2020-03-23 09:00:00 8.2 4 Noroeste 9 Nordeste 0 914.5 1 79
2020-03-23 08:00:00 7.7 5 Nordeste 11 Este 0 914.2 1.1 80
2020-03-23 07:00:00 7.3 9 Este 17 Este 0 913.8 0.9 80
2020-03-23 06:00:00 7.3 9 Nordeste 17 Nordeste 0 913.5 0.6 84
2020-03-23 05:00:00 7.2 6 Nordeste 10 Nordeste 0 913.1 0.1 86
2020-03-23 04:00:00 7.1 3 Oeste 9 Noroeste 0 912.9 -0.2 89
2020-03-23 03:00:00 7.2 6 Norte 12 Noroeste 0 912.9 -0.2 87
2020-03-23 02:00:00 7.8 3 Nordeste 5 Nordeste 0 913 0 83
2020-03-23 01:00:00 7.9 2 Noroeste 6 Nordeste 0 913.1 0.4 84
2020-03-23 00:00:00 8.2 3 Norte 13 Este 0 913.1 0.8 83
2020-03-22 23:00:00 8.4 8 Este 13 Sudeste 0 913 1.3 83
2020-03-22 22:00:00 8.4 2 Noroeste 8 Sudeste 0 912.7 1.8 80
2020-03-22 21:00:00 8.6 7 Sudeste 14 Este 0 912.3 1.7 79
2020-03-22 20:00:00 9 4 Oeste 19 Este 0 911.7 1.3 77
2020-03-22 19:00:00 9.3 18 Nordeste 27 Nordeste 0 910.9 0.6 75
2020-03-22 18:00:00 10.1 16 Nordeste 26 Nordeste 0 910.6 0.3 72
2020-03-22 17:00:00 10.1 17 Este 25 Este 0 910.4 0 72
2020-03-22 16:00:00 10.1 19 Este 30 Este 0 910.3 -0.3 71
2020-03-22 15:00:00 11 17 Sudeste 25 Sudeste 0 910.3 0 63
2020-03-22 14:00:00 11.2 13 Sudeste 26 Este 0 910.4 0 50
2020-03-22 13:00:00 11.5 17 Este 26 Este 0 910.6 -- 47
2020-03-22 12:00:00 12.6 13 Sudeste 22 Sudeste 0 910.3 0.3 47
2020-03-22 11:00:00 10.8 5 Sudoeste 10 Sudoeste 0 910.4 0.6 59
2020-03-22 10:00:00 9 5 Noroeste 9 Noroeste 0 -- -- 75
2020-03-22 09:00:00 7.9 2 Norte 5 Noroeste 0 910 0.6 91
2020-03-22 08:00:00 7.2 2 Noroeste 4 Sudoeste 0 909.8 0.4 94
2020-03-22 07:00:00 7 0 Calma 4 Norte 0 909.6 0.1 93
2020-03-22 06:00:00 7.1 3 Norte 5 Norte 0 909.4 -0.3 92
2020-03-22 05:00:00 7.4 3 Norte 5 Nordeste 0.4 909.4 -0.7 94
2020-03-22 04:00:00 7.9 4 Sudoeste 13 Sudoeste 0.6 909.5 -0.7 91
2020-03-22 03:00:00 8.3 6 Sudoeste 13 Sudoeste 0 909.7 -0.8 87
2020-03-22 02:00:00 8.5 7 Sudoeste 14 Sur 0 910.1 -0.4 87
2020-03-22 01:00:00 9 5 Sudoeste 10 Sudoeste 0 910.2 -0.2 82
2020-03-22 00:00:00 9.3 4 Sur 17 Este 0 910.5 0.3 71
2020-03-21 23:00:00 9.3 7 Sudeste 13 Sudeste 0 910.5 0.6 71
2020-03-21 22:00:00 9.8 12 Este 24 Este 0 910.4 1.1 70
2020-03-21 21:00:00 10.2 16 Este 23 Este 0 910.2 1.1 71
2020-03-21 20:00:00 11 6 Sur 12 Sur 0 909.9 0.4 67
2020-03-21 19:00:00 11.5 0 Calma 6 Oeste 0 909.3 -0.4 63
2020-03-21 18:00:00 11.7 3 Oeste 10 Sur 0 909.1 -1.1 63
2020-03-21 17:00:00 12.2 6 Sur 13 Sudoeste 0 909.5 -1.2 63
2020-03-21 16:00:00 12.6 8 Sur 14 Sur 0 909.7 -1.6 60
2020-03-21 15:00:00 12.3 5 Sur 14 Oeste 0 910.2 -1.7 60
2020-03-21 14:00:00 11.7 8 Sudeste 16 Oeste 0 910.7 -1.3 59
2020-03-21 13:00:00 11.4 7 Sudoeste -- -- -- 911.3 -1 62
2020-03-21 12:00:00 10.5 14 Sur 26 Sur 0 911.9 -0.3 64
2020-03-21 11:00:00 9.2 4 Sudoeste 13 Oeste 0 912 -0.3 72
2020-03-21 10:00:00 8.1 5 Sudoeste 10 Oeste 0 912.3 0.2 72
2020-03-21 09:00:00 5.3 0 Calma 10 Sudeste 0 912.2 0 84
2020-03-21 08:00:00 3.3 8 Sudeste 12 Sur 0 912.3 -0.1 88
2020-03-21 07:00:00 2.9 5 Sudeste 8 Sudeste 0 912.1 -0.5 91
2020-03-21 06:00:00 3.6 4 Sudeste 10 Sudeste 0 912.2 -0.9 88
2020-03-21 05:00:00 3.8 2 Noroeste 7 Sudeste 0 912.4 -1.1 89
2020-03-21 04:00:00 4.7 6 Sur 9 Sur 0 912.6 -1.1 86
2020-03-21 03:00:00 5.9 8 Sudeste 14 Sudeste 0 913.1 -1.1 88
2020-03-21 02:00:00 5 4 Sur 9 Sudeste 0 913.5 -0.8 91
2020-03-21 01:00:00 5.6 5 Sur 10 Sur 0 913.7 -0.7 89
2020-03-21 00:00:00 6.7 6 Sur 14 Sudeste 0 914.2 0.1 84
2020-03-20 23:00:00 7.7 11 Sudeste 19 Este 0 914.3 0.3 83
2020-03-20 22:00:00 8.3 13 Sudeste 25 Este 0 914.4 0.5 81
2020-03-20 21:00:00 9.3 18 Este 25 Este 0 914.1 0.5 78
2020-03-20 20:00:00 10.1 20 Este 26 Este 0 914 0.3 76
2020-03-20 19:00:00 11.7 18 Este 25 Este 0 913.9 0 71
2020-03-20 18:00:00 14.4 9 Sur 16 Sudoeste 0 913.6 -0.9 55
2020-03-20 17:00:00 14.5 13 Sudoeste 22 Sur 0 913.7 -1.3 54
2020-03-20 16:00:00 14.6 15 Sudoeste 28 Sudoeste 0 913.9 -1.7 56
2020-03-20 15:00:00 14.5 14 Sudoeste 27 Sudoeste 0 914.5 -1.6 55
2020-03-20 14:00:00 13.9 12 Sudoeste 22 Sudoeste 0 915 -1.2 58
2020-03-20 13:00:00 11.6 13 Sudoeste 22 Sudoeste 0 915.6 -0.7 65
2020-03-20 12:00:00 10.7 14 Sudoeste 28 Sudoeste 0 916.1 -0.2 68
2020-03-20 11:00:00 9.1 15 Sudoeste 26 Sudoeste 0 916.2 0.2 72
2020-03-20 10:00:00 8.3 16 Sudoeste 23 Sur 0 916.3 0.6 74
2020-03-20 09:00:00 6.6 4 Sur 9 Sur 0 916.3 0.6 86
2020-03-20 08:00:00 4.6 3 Sudoeste 18 Este 0 916 0.2 86
2020-03-20 07:00:00 3.7 8 Sudeste 12 Sudeste 0 915.7 -0.2 89
2020-03-20 06:00:00 4.6 3 Sudeste 14 Sudeste 0 915.7 -0.5 86
2020-03-20 05:00:00 4.9 11 Sudeste 15 Sudeste 0 915.8 -0.5 87
2020-03-20 04:00:00 5 6 Sur 12 Sudeste 0 915.9 -0.6 86
2020-03-20 03:00:00 5.6 4 Sur 14 Este 0 916.2 -0.7 85
2020-03-20 02:00:00 6.1 11 Sudeste 17 Sudeste 0 916.3 -0.7 85
2020-03-20 01:00:00 6.2 6 Sudeste 12 Sudeste 0 916.5 -0.6 85
2020-03-20 00:00:00 6.9 5 Sudeste 10 Sudeste 0 916.9 -0.2 83
2020-03-19 23:00:00 7.9 7 Sudeste 12 Sudeste 0 917 0.1 79
2020-03-19 22:00:00 8.6 5 Sudeste 16 Sudeste 0 917.1 0.6 77
2020-03-19 21:00:00 10.1 13 Sudeste 31 Sudeste 0 917.1 0.9 72
2020-03-19 20:00:00 10.9 22 Este 32 Este 0 916.9 0.6 70
2020-03-19 19:00:00 12.4 27 Este 35 Este 0 916.5 -0.3 63
2020-03-19 18:00:00 14.4 22 Este 32 Este 0 916.2 -1.3 58
2020-03-19 17:00:00 15.6 21 Este 29 Este 0 916.3 -2.1 48
2020-03-19 16:00:00 16.8 4 Este 10 Sur 0 916.8 -2.4 38
2020-03-19 15:00:00 16.5 4 Sudeste 18 Oeste 0 917.5 -2.3 42
2020-03-19 14:00:00 15.3 9 Sudoeste 19 Sudoeste 0 918.4 -2 46
2020-03-19 13:00:00 14 11 Sudoeste 18 Sudoeste 0 919.2 -1.4 44
2020-03-19 12:00:00 12.9 8 Sudoeste 13 Sudoeste 0 919.8 -0.7 48
2020-03-19 11:00:00 10.4 6 Sudoeste 13 Sudoeste 0 920.4 -0.1 66
2020-03-19 10:00:00 6.2 3 Sur 5 Sudoeste 0 920.6 0.2 85
2020-03-19 09:00:00 2.9 3 Nordeste 5 Nordeste 0 920.5 0.1 92
2020-03-19 08:00:00 1.9 2 Sur 8 Sudoeste 0 920.5 -0.1 93
2020-03-19 07:00:00 1.3 5 Sur 8 Sur 0 920.4 -0.3 93
2020-03-19 06:00:00 1.6 0 Calma 5 Oeste 0 920.4 -0.9 93
2020-03-19 05:00:00 2.3 4 Sur 6 Sur 0 920.6 -1.3 92
2020-03-19 04:00:00 3.3 4 Sur 8 Sur 0 920.7 -1.4 90
2020-03-19 03:00:00 4.4 5 Sudeste 10 Sudeste 0 921.3 -1 94
2020-03-19 02:00:00 5.5 5 Sudeste 12 Este 0 921.9 -0.7 91
2020-03-19 01:00:00 6.9 2 Noroeste 16 Sudeste 0 922.1 -0.7 92
2020-03-19 00:00:00 7.8 10 Este 13 Este 0 922.3 -0.3 92
2020-03-18 23:00:00 8.4 10 Este 12 Este 0 922.6 0.2 92
2020-03-18 22:00:00 9.6 9 Este 14 Este 0 922.8 0.8 87
2020-03-18 21:00:00 10.4 13 Este 15 Este 0 922.6 0.8 86
2020-03-18 20:00:00 11.5 5 Nordeste 19 Nordeste 0 922.4 0.6 79
2020-03-18 19:00:00 13 14 Este 21 Este 0 922 0 72
2020-03-18 18:00:00 14.7 18 Este 23 Sudeste 0 921.8 -0.7 62
2020-03-18 17:00:00 16.1 13 Este 23 Este 0 921.8 -1.4 59
2020-03-18 16:00:00 16.5 12 Este 20 Este 0 922 -1.8 55
2020-03-18 15:00:00 15.5 12 Sudeste 20 Este 0 922.5 -1.9 57
2020-03-18 14:00:00 14.4 17 Este 24 Sudeste 0 923.2 -1.5 59
2020-03-18 13:00:00 14 14 Sudeste 23 Este 0 923.8 -1.3 57
2020-03-18 12:00:00 13.2 16 Este 28 Este 0 924.4 -0.6 53
2020-03-18 11:00:00 10.3 4 Noroeste 8 Noroeste 0 924.7 -0.3 75
2020-03-18 10:00:00 7.8 2 Nordeste 5 Norte 0 925.1 0.2 88
2020-03-18 09:00:00 5.7 0 Calma 5 Sudoeste 0 925 0.1 96
2020-03-18 08:00:00 4.4 3 Noroeste 5 Sudoeste 0 925 0.2 96
2020-03-18 07:00:00 4.6 3 Sur 5 Sudeste 0 924.9 0.1 96
2020-03-18 06:00:00 5.1 3 Noroeste 4 Noroeste 0 924.9 -0.2 95
2020-03-18 05:00:00 5.5 0 Calma 5 Sudoeste 0 924.8 -0.7 95
2020-03-18 04:00:00 6.1 3 Norte 6 Oeste 0 924.8 -1 93
2020-03-18 03:00:00 6.7 4 Oeste 10 Sudoeste 0 925.1 -1 90
2020-03-18 02:00:00 7.3 2 Sur 16 Este 0 925.5 -0.7 87
2020-03-18 01:00:00 8 3 Noroeste 11 Este 0 925.8 -0.2 85
2020-03-18 00:00:00 8.5 2 Noroeste 13 Nordeste 0 926.1 0.5 84
2020-03-17 23:00:00 8.9 2 Sudeste 22 Sudeste 0 926.2 1.1 84
2020-03-17 22:00:00 9.3 18 Este 26 Este 0 926 1.3 82
2020-03-17 21:00:00 9.6 9 Este 16 Este 0 925.6 1.4 81
2020-03-17 20:00:00 9.9 9 Este 29 Este 0 925.1 1.1 82
2020-03-17 19:00:00 10.9 10 Este 37 Este 0 924.7 0.9 79
2020-03-17 18:00:00 11.7 19 Este 30 Este 0 924.2 0.5 73
2020-03-17 17:00:00 11.8 13 Este 31 Este 0 924 0.2 79
2020-03-17 16:00:00 11.4 18 Este 35 Este 0 923.8 -0.1 83
2020-03-17 15:00:00 11.6 18 Este 29 Este 0 923.7 -- 83
2020-03-17 14:00:00 11.3 15 Este 26 Este 0.6 923.8 1 87
2020-03-17 13:00:00 11.7 15 Este 40 Este 0.2 923.9 1.6 84
2020-03-17 12:00:00 11.3 30 Este 43 Este 0 -- -- 82
2020-03-17 11:00:00 11 16 Este 30 Este 0 922.8 2 86
2020-03-17 10:00:00 9.9 18 Nordeste 27 Nordeste 0 922.3 2.4 90
2020-03-17 09:00:00 9.3 12 Nordeste 22 Nordeste 0 921.6 2.2 91
2020-03-17 08:00:00 8 3 Sudeste 12 Norte 0 920.8 1.8 96
2020-03-17 07:00:00 7.5 5 Norte 12 Norte 0.6 919.9 1.7 98
2020-03-17 06:00:00 7.5 3 Norte 8 Norte 0.4 919.4 1.2 98
2020-03-17 05:00:00 7.3 3 Nordeste 5 Norte 2.2 919 0.9 97
2020-03-17 04:00:00 7.3 3 Noroeste 10 Norte 1.8 918.2 0.4 97
2020-03-17 03:00:00 7 3 Norte 10 Norte 2.4 918.2 0.6 98
2020-03-17 02:00:00 6.5 5 Norte 17 Noroeste 0 918.1 0.9 99
2020-03-17 01:00:00 4.5 4 Norte 13 Norte 0 917.8 1.4 99
2020-03-17 00:00:00 3.5 4 Noroeste 11 Nordeste 0 917.6 1.6 99
2020-03-16 23:00:00 2.8 2 Norte 5 Norte 0 917.2 2.2 97
2020-03-16 22:00:00 2.5 3 Norte 8 Norte 0 916.4 2.3 97
2020-03-16 21:00:00 2.6 2 Norte 6 Norte 0 916 2.3 95
2020-03-16 20:00:00 2.6 3 Noroeste 9 Sudoeste 0 915 1.6 95
2020-03-16 19:00:00 2.2 4 Noroeste 15 Nordeste 0 914.1 1.8 96
2020-03-16 18:00:00 1.7 8 Nordeste 15 Sur 2.6 913.7 1.7 97
2020-03-16 17:00:00 2.1 6 Sur 18 Sudoeste 0.6 913.4 1.1 96
2020-03-16 16:00:00 1.4 6 Norte 15 Norte 2.2 912.3 -0.6 97
2020-03-16 15:00:00 1.6 7 Noroeste 15 Norte 0.6 912 -0.4 95
2020-03-16 14:00:00 2 6 Noroeste 16 Norte 0.2 912.3 0.5 95
2020-03-16 13:00:00 1.4 5 Oeste 8 Oeste 1.6 912.9 2.8 95
2020-03-16 12:00:00 0.8 2 Norte 15 Norte 3.2 912.4 4 96
2020-03-16 11:00:00 2.5 8 Noroeste 27 Noroeste 5.6 911.8 3.7 93
2020-03-16 10:00:00 4 22 Noroeste 35 Oeste 5.6 910.1 2.3 92
2020-03-16 09:00:00 8.8 5 Noroeste 19 Este 0 908.4 0.7 85
2020-03-16 08:00:00 9.2 10 Este 19 Este 0 908.1 -0.4 81
2020-03-16 07:00:00 8.4 13 Este 21 Este 0 907.8 -1.2 86
2020-03-16 06:00:00 8.6 12 Sudeste 22 Sudeste 0 907.7 -1.9 84
2020-03-16 05:00:00 8.4 4 Sudeste 9 Sudeste 0 908.5 -2.1 88
2020-03-16 04:00:00 8.3 6 Sur 21 Este 0.2 909 -1.6 90
2020-03-16 03:00:00 7.6 15 Este 21 Este 1 909.6 -2.6 92
2020-03-16 02:00:00 7.6 9 Sudeste 17 Este 3.8 910.6 -0.5 92
2020-03-16 01:00:00 7.7 10 Este 16 Este 1.2 910.6 -0.1 90
2020-03-16 00:00:00 8.7 4 Sudeste 51 Oeste 1 912.2 1.3 81
2020-03-15 23:00:00 10.3 13 Sudoeste 27 Sur 0 911.1 0.9 76
2020-03-15 22:00:00 11.3 10 Sur 22 Sur 0 910.7 0.6 66
2020-03-15 21:00:00 11.7 9 Sur 32 Sur 0 910.9 0.8 68
2020-03-15 20:00:00 13 18 Sudoeste 37 Sudoeste 0 910.2 -0.2 59
2020-03-15 19:00:00 14.5 17 Sudoeste 43 Sudoeste 0 910.1 -0.2 51
2020-03-15 18:00:00 16.5 10 Sudoeste 34 Sur 0 910.1 -0.7 50
2020-03-15 17:00:00 17.2 12 Oeste 42 Sur 0 910.4 -1.8 52
2020-03-15 16:00:00 18.2 19 Sur 42 Sur 0 910.3 -2.6 44
2020-03-15 15:00:00 19.8 23 Sur 46 Sur 0 910.8 -3 42
2020-03-15 14:00:00 19 25 Sur 49 Sur 0 912.2 -2.2 46
2020-03-15 13:00:00 19.3 21 Sur 40 Sur 0 912.9 -2.3 43
2020-03-15 12:00:00 18.1 23 Sudoeste 38 Sudoeste 0 913.8 -1.6 49
2020-03-15 11:00:00 17.2 19 Sur 36 Sur 0 914.4 -1 52
2020-03-15 10:00:00 12.7 4 Sudeste 9 Este 0 915.2 -0.2 67
2020-03-15 09:00:00 6.4 0 Calma 5 Sudoeste 0 915.4 -0.2 76
2020-03-15 08:00:00 2.2 0 Calma 3 Oeste 0 915.4 -0.5 79
2020-03-15 07:00:00 1.2 3 Sudoeste 4 Sudoeste 0 915.4 -0.8 80
2020-03-15 06:00:00 0.9 2 Noroeste 9 Nordeste 0 915.6 -1.4 78
2020-03-15 05:00:00 1.4 2 Oeste 4 Norte 0 915.9 -1.7 75
2020-03-15 04:00:00 1.8 3 Sudoeste 6 Sudoeste 0 916.2 -1.7 71
2020-03-15 03:00:00 1.9 3 Este 5 Nordeste 0 917 -1 69
2020-03-15 02:00:00 2.5 0 Calma 4 Sudoeste 0 917.6 -0.6 66
2020-03-15 01:00:00 3.6 2 Sur 7 Sur 0 917.9 -0.3 61
2020-03-15 00:00:00 4.5 3 Sudoeste 9 Sudeste 0 918 0 56
2020-03-14 23:00:00 5 3 Oeste 9 Nordeste 0 918.2 0.6 53
2020-03-14 22:00:00 6.8 3 Norte 9 Este 0 918.2 0.7 46
2020-03-14 21:00:00 9.2 2 Norte 12 Este 0 918 0.9 38
2020-03-14 20:00:00 11.5 4 Noroeste 15 Este 0 917.6 0.7 32
2020-03-14 19:00:00 14.6 8 Nordeste 18 Nordeste 0 917.5 0.5 26
2020-03-14 18:00:00 16.6 9 Norte 21 Norte 0 917.1 -0.2 21
2020-03-14 17:00:00 17.3 12 Norte 23 Norte 0 916.9 -1.3 22
2020-03-14 16:00:00 17.8 13 Norte 24 Nordeste 0 917 -1.9 23
2020-03-14 15:00:00 18.4 8 Norte 18 Noroeste 0 917.3 -2.1 19
2020-03-14 14:00:00 17.3 8 Norte 19 Noroeste 0 918.2 -1.7 24
2020-03-14 13:00:00 15.8 6 Noroeste 17 Noroeste 0 918.9 -1 35
2020-03-14 12:00:00 14 4 Sudeste 12 Noroeste 0 919.4 -0.2 53
2020-03-14 11:00:00 11.2 4 Oeste 10 Noroeste 0 919.9 0.8 67
2020-03-14 10:00:00 7.9 3 Sur 6 Sudoeste 0 919.9 1.2 80
2020-03-14 09:00:00 3.8 4 Nordeste 6 Nordeste 0 919.6 1.4 89
2020-03-14 08:00:00 1.6 0 Calma 7 Sudeste 0 919.1 1.3 92
2020-03-14 07:00:00 1.2 6 Sudeste 8 Sudeste 0 918.7 0.8 93
2020-03-14 06:00:00 1.8 3 Norte 9 Sur 0 918.2 -0.2 91
2020-03-14 05:00:00 2.5 4 Sudeste 8 Norte 0 917.8 -0.7 92
2020-03-14 04:00:00 3.4 0 Calma 5 Sur 0 917.9 -0.4 88
2020-03-14 03:00:00 4 0 Calma 6 Sur 0 918.4 -0.1 88
2020-03-14 02:00:00 4.8 2 Noroeste 5 Noroeste 0 918.5 0 87
2020-03-14 01:00:00 5.6 4 Sudeste 6 Sudeste 0 918.3 0 84
2020-03-14 00:00:00 6.6 3 Norte 6 Noroeste 0 918.5 0.5 83
2020-03-13 23:00:00 7.3 3 Norte 10 Noroeste 0 918.5 1 81
2020-03-13 22:00:00 8.4 4 Noroeste 12 Norte 0 918.3 1.5 77
2020-03-13 21:00:00 9 7 Norte 18 Norte 0 918 1.8 74
2020-03-13 20:00:00 10.3 8 Norte 26 Norte 0 917.5 1.4 71
2020-03-13 19:00:00 12.1 12 Norte 28 Nordeste 0 916.8 0.6 63
2020-03-13 18:00:00 14.3 12 Norte 25 Norte 0 916.2 -0.2 57
2020-03-13 17:00:00 16.1 9 Norte 30 Norte 0 916.1 -0.8 52
2020-03-13 16:00:00 16.3 14 Norte 27 Norte 0 916.2 -1.4 52
2020-03-13 15:00:00 16.7 10 Norte 24 Nordeste 0 916.4 -1.7 52
2020-03-13 14:00:00 16.6 10 Norte 24 Norte 0 916.9 -1.6 52
2020-03-13 13:00:00 15.5 11 Noroeste 22 Noroeste 0 917.6 -1 55
2020-03-13 12:00:00 14 11 Noroeste 22 Noroeste 0 918.1 -0.4 61
2020-03-13 11:00:00 11.6 8 Noroeste 17 Norte 0 918.5 0.3 69
2020-03-13 10:00:00 10.5 6 Noroeste 14 Noroeste 0 918.6 0.8 77
2020-03-13 09:00:00 9.4 6 Noroeste 13 Noroeste 0 918.5 1 80
2020-03-13 08:00:00 7.5 3 Norte 10 Norte 0 918.2 0.2 88
2020-03-13 07:00:00 7.9 5 Norte 13 Norte 0 917.8 0 85
2020-03-13 06:00:00 8.4 3 Noroeste 16 Noroeste 0 917.5 -0.4 83
2020-03-13 05:00:00 8.5 10 Norte 21 Noroeste 0 918 0.2 85
2020-03-13 04:00:00 7.9 6 Noroeste 17 Oeste 0 917.8 -0.3 88
2020-03-13 03:00:00 8 4 Norte 13 Norte 0 917.9 -0.2 90
2020-03-13 02:00:00 8.3 5 Norte 11 Norte 0 917.8 0.2 89
2020-03-13 01:00:00 9.2 5 Noroeste 18 Noroeste 0 918.1 0.5 87
2020-03-13 00:00:00 10 8 Norte 21 Noroeste 0 918.1 0.7 85
2020-03-12 23:00:00 11.3 6 Norte 14 Nordeste 0 917.6 0.7 80
2020-03-12 22:00:00 13.1 4 Norte 13 Norte 0 917.6 1.4 72
2020-03-12 21:00:00 14.6 6 Norte 16 Norte 0 917.4 1.7 64
2020-03-12 20:00:00 17.1 6 Noroeste 16 Norte 0 916.9 1.4 56
2020-03-12 19:00:00 21 4 Oeste 23 Este 0 916.2 0.1 42
2020-03-12 18:00:00 22 17 Este 34 Este 0 915.7 -0.9 39
2020-03-12 17:00:00 24.6 6 Noroeste 19 Noroeste 0 915.5 -2.1 25
2020-03-12 16:00:00 25 8 Sudeste 29 Noroeste 0 916.1 -2.8 26
2020-03-12 15:00:00 25.8 4 Noroeste 17 Norte 0 916.6 -3 23
2020-03-12 14:00:00 26.5 5 Noroeste 11 Noroeste 0 917.6 -2.6 22
2020-03-12 13:00:00 24.1 6 Sudoeste 11 Sur 0 918.9 -1.6 32
2020-03-12 12:00:00 21.4 5 Sudeste 12 Sur 0 919.6 -1 42
2020-03-12 11:00:00 17.5 6 Sudeste 10 Sur 0 920.2 -0.1 50
2020-03-12 10:00:00 12.9 5 Sur 14 Sudeste 0 920.5 0.1 65
2020-03-12 09:00:00 9.4 14 Sudeste 19 Sudeste 0 920.6 0.3 74
2020-03-12 08:00:00 7 5 Sudeste 12 Sudeste 0 920.3 -0.5 79
2020-03-12 07:00:00 6.9 11 Sudeste 15 Sudeste 0 920.4 -0.6 81
2020-03-12 06:00:00 5 3 Sur 8 Sudeste 0 920.3 -1.3 84
2020-03-12 05:00:00 4.8 5 Sur 8 Sur 0 920.8 -0.9 84
2020-03-12 04:00:00 5.1 0 Calma 6 Sudeste 0 921 -0.7 86
2020-03-12 03:00:00 6.1 3 Norte 8 Sudeste 0 921.6 -0.5 82
2020-03-12 02:00:00 7.3 4 Sudeste 10 Sudeste 0 921.7 -0.5 79
2020-03-12 01:00:00 7.8 0 Calma 3 Norte 0 921.7 -0.3 78
2020-03-12 00:00:00 9.2 0 Calma 5 Sudeste 0 922.1 0.5 71
2020-03-11 23:00:00 10.1 3 Noroeste 6 Sudeste 0 922.2 0.7 70
2020-03-11 22:00:00 11.7 0 Calma 9 Sur 0 922 1.1 65
2020-03-11 21:00:00 14.1 3 Sudoeste 7 Sudeste 0 921.6 1.1 57
2020-03-11 20:00:00 17.1 4 Sudoeste 5 Sudoeste 0 921.5 1.1 49
2020-03-11 19:00:00 20.9 2 Norte 12 Noroeste 0 920.9 0.2 38
2020-03-11 18:00:00 23.6 5 Noroeste 21 Noroeste 0 920.5 -0.6 31
2020-03-11 17:00:00 24.9 8 Noroeste 15 Norte 0 920.4 -1.5 26
2020-03-11 16:00:00 24.7 9 Norte 24 Noroeste 0 920.7 -2.2 27
2020-03-11 15:00:00 24.5 11 Noroeste 23 Noroeste 0 921.1 -2.5 26
2020-03-11 14:00:00 22.9 10 Oeste 24 Noroeste 0 921.9 -2.2 29
2020-03-11 13:00:00 21.3 12 Oeste 25 Oeste 0 922.9 -1.3 32
2020-03-11 12:00:00 19.2 4 Sur 12 Sur 0 923.6 -0.5 40
2020-03-11 11:00:00 15.4 8 Sur 12 Sur 0 924.1 0.3 56
2020-03-11 10:00:00 10.7 5 Sudeste 9 Sur 0 924.2 0.7 68
2020-03-11 09:00:00 6.2 0 Calma 6 Noroeste 0 924.1 0.8 82
2020-03-11 08:00:00 2.2 2 Sudoeste 4 Sudeste 0 923.8 0.7 90
2020-03-11 07:00:00 2.5 4 Sur 6 Sur 0 923.5 0.1 90
2020-03-11 06:00:00 2.9 2 Este 5 Sur 0 923.3 -0.3 89
2020-03-11 05:00:00 3 0 Calma 10 Sur 0 923.1 -0.6 89
2020-03-11 04:00:00 3.5 4 Sur 10 Sur 0 923.4 -0.5 89
2020-03-11 03:00:00 4 4 Sudeste 6 Sudeste 0 923.6 -0.5 86
2020-03-11 02:00:00 4.6 0 Calma 4 Noroeste 0 923.7 -0.3 85
2020-03-11 01:00:00 5.4 2 Noroeste 8 Noroeste 0 923.9 0.1 82
2020-03-11 00:00:00 6.6 3 Sur 5 Sudeste 0 924.1 0.7 78
2020-03-10 23:00:00 8 0 Calma 4 Sur 0 924 0.9 72
2020-03-10 22:00:00 10 2 Sudoeste 6 Sur 0 923.8 1.3 66
2020-03-10 21:00:00 12.4 0 Calma 4 Sudeste 0 923.4 1.2 58
2020-03-10 20:00:00 15.1 0 Calma 5 Este 0 923.1 0.8 51
2020-03-10 19:00:00 18.9 3 Oeste 12 Noroeste 0 922.5 -0.1 40
2020-03-10 18:00:00 21.1 6 Noroeste 19 Noroeste 0 922.2 -0.8 33
2020-03-10 17:00:00 20.7 6 Norte 17 Noroeste 0 922.3 -1.1 35
2020-03-10 16:00:00 20.4 4 Este 12 Sudoeste 0 922.6 -1.7 34
2020-03-10 15:00:00 19.7 6 Sudeste 12 Sudoeste 0 923 -1.6 35
2020-03-10 14:00:00 18.5 5 Sur -- -- -- 923.4 -1.5 35
2020-03-10 13:00:00 16.7 5 Nordeste 10 Noroeste 0 924.3 -0.7 39
2020-03-10 12:00:00 14.8 3 Sur 9 Nordeste 0 924.6 -0.1 44
2020-03-10 11:00:00 11.1 3 Sur 6 Sudeste 0 924.9 0.5 56
2020-03-10 10:00:00 6 0 Calma 8 Noroeste 0 925 1 79
2020-03-10 09:00:00 1.5 2 Noroeste 5 Sudeste 0 924.7 1 87
2020-03-10 08:00:00 -0.2 0 Calma 5 Sudeste 0 924.4 1 90
2020-03-10 07:00:00 -0.5 2 Este 5 Sur 0 924 0.7 91
2020-03-10 06:00:00 -0.6 0 Calma 4 Sudeste 0 923.7 0.2 91
2020-03-10 05:00:00 -0.1 4 Nordeste 8 Sudeste 0 923.4 -0.2 91
2020-03-10 04:00:00 0.2 4 Sur 6 Este 0 923.3 -0.2 89
2020-03-10 03:00:00 0.9 3 Oeste 8 Oeste 0 923.5 -0.1 87
2020-03-10 02:00:00 1.6 0 Calma 8 Sudeste 0 923.6 0 86
2020-03-10 01:00:00 2.7 0 Calma 10 Norte 0 923.5 0.2 83
2020-03-10 00:00:00 4.2 5 Norte 13 Norte 0 923.6 0.4 79
2020-03-09 23:00:00 5.1 0 Calma 12 Norte 0 923.6 1.1 78
2020-03-09 22:00:00 5.7 8 Noroeste 20 Noroeste 0 923.3 1.2 77
2020-03-09 21:00:00 6.2 6 Norte 24 Norte 0 923.2 1.7 75
2020-03-09 20:00:00 7.4 12 Norte 27 Nordeste 0 922.5 1.6 68
2020-03-09 19:00:00 8.9 11 Norte 34 Nordeste 0 922.1 1.2 63
2020-03-09 18:00:00 10.9 17 Norte 35 Nordeste 0 921.5 0.5 51
2020-03-09 17:00:00 12.6 18 Nordeste 39 Nordeste 0 920.9 -0.9 43
2020-03-09 16:00:00 13.6 14 Norte 37 Norte 0 920.9 -1.4 42
2020-03-09 15:00:00 13.5 20 Noroeste 44 Noroeste 0 921 -1.8 37
2020-03-09 14:00:00 12.1 14 Norte 37 Noroeste 0 921.8 -1.3 42
2020-03-09 13:00:00 11.8 16 Noroeste 42 Noroeste 0 922.3 -0.7 44
2020-03-09 12:00:00 10.5 21 Noroeste 39 Noroeste 0 922.8 0.3 49
2020-03-09 11:00:00 9.1 12 Norte 29 Noroeste 0 923.1 0.8 57
2020-03-09 10:00:00 7.8 8 Norte 17 Norte 0 923 1.2 74
2020-03-09 09:00:00 7 6 Noroeste 23 Noroeste 0 922.5 1 77
2020-03-09 08:00:00 6.7 6 Noroeste 17 Noroeste 0 922.3 1 79
2020-03-09 07:00:00 6.9 6 Noroeste 17 Norte 0 921.8 1.1 79
2020-03-09 06:00:00 7.2 7 Norte 16 Norte 0 921.5 0.1 81
2020-03-09 05:00:00 6.9 4 Oeste 14 Norte 0 921.3 -0.3 79
2020-03-09 04:00:00 6.8 7 Norte 22 Noroeste 0 920.7 -0.7 78
2020-03-09 03:00:00 6.8 0 Calma 11 Sudoeste 0 921.4 -0.3 74
2020-03-09 02:00:00 6.2 3 Sudoeste 9 Noroeste 0 921.6 0 73
2020-03-09 01:00:00 5.9 6 Sudeste 12 Sudeste 0 921.4 0.2 71
2020-03-09 00:00:00 5.9 7 Sudeste 10 Sudeste 0 921.7 0.8 67
2020-03-08 23:00:00 7.6 7 Oeste 16 Oeste 0 921.6 1 60
2020-03-08 22:00:00 8 2 Oeste 6 Sur 0 921.2 1 59
2020-03-08 21:00:00 10.4 2 Norte 7 Noroeste 0 920.9 0.9 54
2020-03-08 20:00:00 12 2 Noroeste 12 Norte 0 920.6 0.7 51
2020-03-08 19:00:00 13 6 Norte 18 Nordeste 0 920.2 0.3 47
2020-03-08 18:00:00 14.1 8 Norte 23 Norte 0 920 -0.1 40
2020-03-08 17:00:00 15.7 11 Norte 27 Norte 0 919.9 -0.9 33
2020-03-08 16:00:00 15.8 9 Norte 34 Noroeste 0 919.9 -1.9 39
2020-03-08 15:00:00 16.1 14 Noroeste 33 Noroeste 0 920.1 -2.5 30
2020-03-08 14:00:00 15.3 16 Noroeste 36 Noroeste 0 920.8 -2.3 34
2020-03-08 13:00:00 14 12 Noroeste 32 Norte 0 921.8 -1.5 41
2020-03-08 12:00:00 11.5 7 Oeste 24 Oeste 0 922.6 -0.5 54
2020-03-08 11:00:00 8.6 8 Sur 15 Sudoeste 0 923.1 0.4 65
2020-03-08 10:00:00 4.9 6 Sudeste 11 Sur 0 923.3 0.9 80
2020-03-08 09:00:00 1.1 7 Sur 15 Sudeste 0 923.1 0.6 88
2020-03-08 08:00:00 -2.4 7 Sur 11 Sur 0 922.7 0.5 94
2020-03-08 07:00:00 -2.9 5 Nordeste 8 Sudeste 0 922.4 0.4 92
2020-03-08 06:00:00 -2.5 2 Sudoeste 5 Sur 0 922.5 0.1 90
2020-03-08 05:00:00 -1.6 2 Sur 10 Sudeste 0 922.2 -0.8 92
2020-03-08 04:00:00 -1.2 3 Norte 7 Nordeste 0 922 -1.6 92
2020-03-08 03:00:00 0.1 0 Calma 4 Nordeste 0 922.4 -0.9 89
2020-03-08 02:00:00 2.1 2 Oeste 10 Oeste 0 923 -0.6 85
2020-03-08 01:00:00 2 5 Sudeste 8 Sur 0 923.6 0.4 86
2020-03-08 00:00:00 3 3 Sudeste 9 Sur 0 923.3 0.6 84
2020-03-07 23:00:00 4.5 2 Norte 11 Sudoeste 0 923.6 1.1 80
2020-03-07 22:00:00 4.9 4 Sudeste 12 Nordeste 0 923.2 1.2 80
2020-03-07 21:00:00 6.6 7 Norte 17 Nordeste 0 922.7 1.1 76
2020-03-07 20:00:00 7.4 10 Nordeste 24 Nordeste 0 922.5 1.5 71
2020-03-07 19:00:00 9 9 Nordeste 23 Norte 0 922 1 65
2020-03-07 18:00:00 10.5 15 Norte 34 Norte 0 921.6 0.9 58
2020-03-07 17:00:00 11.8 12 Norte 36 Noroeste 0 921 -0.2 52
2020-03-07 16:00:00 11.4 14 Norte 37 Norte 0 921 -0.6 54
2020-03-07 15:00:00 11 14 Norte 33 Nordeste 0 920.7 -0.9 56
2020-03-07 14:00:00 10.4 17 Noroeste 41 Noroeste 0 921.2 -0.6 58
2020-03-07 13:00:00 9.3 13 Norte 37 Noroeste 0 921.6 0 62
2020-03-07 12:00:00 8.6 16 Noroeste 31 Noroeste 0 921.6 0.4 67
2020-03-07 11:00:00 6.1 8 Norte 24 Noroeste 0 921.8 1.2 76
2020-03-07 10:00:00 4.6 6 Norte 16 Noroeste 0 921.6 1.6 82
2020-03-07 09:00:00 3.5 8 Noroeste 26 Noroeste 0 921.2 1.7 81
2020-03-07 08:00:00 3.2 13 Noroeste 22 Noroeste 0 920.6 1.3 72
2020-03-07 07:00:00 3.7 6 Noroeste 23 Noroeste 0 920 0.7 63
2020-03-07 06:00:00 4 10 Noroeste 32 Noroeste 0 919.5 0.1 61
2020-03-07 05:00:00 3.9 14 Noroeste 30 Noroeste 0 919.3 -0.1 66
2020-03-07 04:00:00 3.6 5 Norte 18 Norte 0 919.3 -0.2 68
2020-03-07 03:00:00 3.3 8 Norte 29 Noroeste 0 919.4 -0.1 70
2020-03-07 02:00:00 3.1 9 Norte 20 Norte 0 919.4 -0.2 68
2020-03-07 01:00:00 2.9 8 Noroeste 32 Noroeste 0 919.5 0.6 65
2020-03-07 00:00:00 3.2 12 Noroeste 23 Noroeste 0 919.5 1.6 63
2020-03-06 23:00:00 3.5 10 Noroeste 26 Noroeste 0 919.6 2.6 65
2020-03-06 22:00:00 3.6 13 Noroeste 40 Noroeste 0 918.9 3.1 64
2020-03-06 21:00:00 4.8 18 Noroeste 45 Noroeste 0 917.9 3 57
2020-03-06 20:00:00 5.1 13 Noroeste 43 Norte 0 917 2.9 51
2020-03-06 19:00:00 6.1 19 Noroeste 41 Oeste 0 915.8 2.6 45
2020-03-06 18:00:00 7 23 Noroeste 57 Noroeste 0 914.9 1.9 41
2020-03-06 17:00:00 8.2 33 Noroeste 56 Noroeste 0 914.1 0.7 39
2020-03-06 16:00:00 7.4 29 Noroeste 53 Noroeste 0 913.2 -0.4 53
2020-03-06 15:00:00 8 29 Noroeste 53 Noroeste 0 913 0.5 48
2020-03-06 14:00:00 6.4 30 Noroeste 52 Noroeste 0.6 913.4 1.4 59
2020-03-06 13:00:00 5.5 26 Noroeste 66 Noroeste 0 913.6 1.7 70
2020-03-06 12:00:00 6.7 31 Noroeste 61 Oeste 0 912.5 1.5 58
2020-03-06 11:00:00 6.3 41 Noroeste 68 Noroeste 0 912 1.3 58
2020-03-06 10:00:00 5.6 29 Noroeste 59 Noroeste 0 911.9 1.4 64
2020-03-06 09:00:00 5.1 23 Noroeste 41 Oeste 0.2 911 0.5 73
2020-03-06 08:00:00 4 18 Noroeste 34 Noroeste 0.2 910.7 0 84
2020-03-06 07:00:00 4.1 12 Oeste 24 Noroeste 0 910.5 -0.3 76
2020-03-06 06:00:00 4.3 6 Oeste 17 Noroeste 0 910.5 -0.5 77
2020-03-06 05:00:00 4.2 6 Noroeste 22 Noroeste 0 910.7 -0.6 77
2020-03-06 04:00:00 4.4 9 Noroeste 19 Noroeste 0 910.8 -0.5 72
2020-03-06 03:00:00 5.3 5 Norte 28 Noroeste 0 911 -0.5 71
2020-03-06 02:00:00 5.8 7 Noroeste 14 Noroeste 0 911.3 -0.3 78
2020-03-06 01:00:00 6.1 6 Sudoeste 11 Sudoeste 0 911.3 -0.3 83
2020-03-06 00:00:00 6.5 3 Noroeste 23 Noroeste 0 911.5 0.5 81
2020-03-05 23:00:00 6.6 10 Noroeste 20 Noroeste 0.2 911.6 1.3 83
2020-03-05 22:00:00 7.1 11 Noroeste 32 Noroeste 0 911.6 2.1 75
2020-03-05 21:00:00 8 11 Norte 33 Noroeste 0 911 2 72
2020-03-05 20:00:00 10.3 18 Noroeste 32 Noroeste 0 910.3 1.9 52
2020-03-05 19:00:00 10.8 23 Noroeste 47 Noroeste 0 909.5 1.7 49
2020-03-05 18:00:00 12.2 33 Noroeste 57 Noroeste 0 909 1.4 44
2020-03-05 17:00:00 13.1 35 Noroeste 69 Noroeste 0 908.4 0 40
2020-03-05 16:00:00 13.4 45 Noroeste 76 Noroeste 0 907.8 0.1 40
2020-03-05 15:00:00 12.6 34 Noroeste 64 Oeste 0 907.6 -1.4 52
2020-03-05 14:00:00 9.9 26 Noroeste 67 Oeste 0.4 908.4 -0.5 82
2020-03-05 13:00:00 13.8 36 Oeste 66 Oeste 0 907.7 -1.4 60
2020-03-05 12:00:00 12 26 Oeste 49 Sudoeste 0 909 -0.7 70
2020-03-05 11:00:00 12.3 26 Sudoeste 52 Sudoeste 0 908.9 -0.9 68
2020-03-05 10:00:00 11.5 23 Sudoeste 50 Oeste 0 909.1 -1.4 72
2020-03-05 09:00:00 10 11 Sudoeste 26 Sudoeste 0 909.7 -1.1 75
2020-03-05 08:00:00 9.7 6 Sudoeste 23 Sudoeste 0 909.8 -1.8 75
2020-03-05 07:00:00 8.5 0 Calma 13 Sudoeste 0 910.5 -2.5 81
2020-03-05 06:00:00 9 8 Sudoeste 18 Sudoeste 0 910.8 -2.7 77
2020-03-05 05:00:00 7.9 6 Sur 13 Sudoeste 0 911.6 -2.9 79
2020-03-05 04:00:00 8 6 Sudoeste 17 Sudoeste 0 913 -2.1 76
2020-03-05 03:00:00 8.1 9 Sudoeste 15 Sudoeste 0 913.5 -2.1 77
2020-03-05 02:00:00 6.3 0 Calma 11 Sudeste 0 914.5 -1.7 81
2020-03-05 01:00:00 7.7 7 Sudeste 14 Sudeste 0 915.1 -1.8 78
2020-03-05 00:00:00 9.5 4 Oeste 12 Oeste 0 915.6 -1.3 70
2020-03-04 23:00:00 10.4 7 Sudoeste 14 Noroeste 0 916.2 -0.5 67
2020-03-04 22:00:00 11.1 4 Noroeste 12 Noroeste 0 916.9 0.6 64
2020-03-04 21:00:00 11.2 3 Noroeste 13 Noroeste 0 916.9 0.9 64
2020-03-04 20:00:00 11.7 7 Noroeste 23 Noroeste 0 916.7 0.6 62
2020-03-04 19:00:00 13.4 11 Noroeste 23 Noroeste 0 916.3 0.2 56
2020-03-04 18:00:00 15.2 12 Noroeste 35 Noroeste 0 916 -0.4 50
2020-03-04 17:00:00 15.3 20 Noroeste 35 Noroeste 0 916.1 -0.9 50
2020-03-04 16:00:00 16.1 23 Noroeste 40 Oeste 0 916.1 -1.5 50
2020-03-04 15:00:00 16.7 22 Noroeste 41 Noroeste 0 916.4 -1.6 48
2020-03-04 14:00:00 15.9 22 Noroeste 39 Noroeste 0 917 -1.1 49
2020-03-04 13:00:00 15.1 21 Noroeste 44 Noroeste 0 917.6 -0.3 56
2020-03-04 12:00:00 15.1 18 Oeste 40 Noroeste 0 918 0.4 60
2020-03-04 11:00:00 14.1 16 Noroeste 41 Noroeste 0 918.1 1.2 68
2020-03-04 10:00:00 13 9 Noroeste 21 Noroeste 0 917.9 1.3 76
2020-03-04 09:00:00 11.6 9 Oeste 24 Noroeste 0 917.6 1 82
2020-03-04 08:00:00 10.6 6 Noroeste 17 Noroeste 0 916.9 0.4 86
2020-03-04 07:00:00 9.9 6 Noroeste 19 Noroeste 0 916.6 0.1 88
2020-03-04 06:00:00 9 6 Norte 12 Norte 0 916.6 -0.3 89
2020-03-04 05:00:00 7.5 3 Noroeste 8 Norte 0 916.5 -0.1 83
2020-03-04 04:00:00 7.2 5 Norte 11 Este 0 916.5 0.2 82
2020-03-04 03:00:00 8.4 8 Noroeste 23 Noroeste 0 916.9 0.6 76
2020-03-04 02:00:00 8.1 10 Noroeste 17 Noroeste 0 916.6 0.8 79
2020-03-04 01:00:00 8 4 Norte 8 Noroeste 0 916.3 1.4 78
2020-03-04 00:00:00 8.3 0 Calma 13 Nordeste 0 916.3 2.6 75
2020-03-03 23:00:00 9.6 4 Noroeste 16 Nordeste 0 915.8 2.9 71
2020-03-03 22:00:00 10.3 9 Nordeste 35 Norte 0 914.9 3.5 68
2020-03-03 21:00:00 13.3 23 Noroeste 44 Noroeste 0 913.7 3.6 65
2020-03-03 20:00:00 14 28 Noroeste 60 Noroeste 0 912.9 3.5 58
2020-03-03 19:00:00 14.8 32 Noroeste 61 Noroeste 0 911.4 2.2 50
2020-03-03 18:00:00 14.7 26 Noroeste 66 Oeste 0 910.1 0.6 49
2020-03-03 17:00:00 15.5 34 Oeste 81 Noroeste 0 909.4 -0.9 46
2020-03-03 16:00:00 13.5 27 Oeste 60 Oeste 0 909.2 -2.1 62
2020-03-03 15:00:00 12.7 27 Oeste 60 Oeste 0 909.5 -2.8 64
2020-03-03 14:00:00 10.7 25 Oeste 54 Sudoeste 0 910.3 -1.8 71
2020-03-03 13:00:00 9 18 Oeste 50 Noroeste 0 911.3 -1.1 73
2020-03-03 12:00:00 7.8 14 Noroeste 41 Oeste 0 912.3 -0.5 73
2020-03-03 11:00:00 6.6 14 Oeste 26 Oeste 0 912.1 -1.5 73
2020-03-03 10:00:00 4.4 7 Sur 18 Sudeste 0 912.4 -0.8 81
2020-03-03 09:00:00 3.5 6 Sur 17 Oeste 0.4 912.8 -0.7 84
2020-03-03 08:00:00 3.2 10 Oeste 30 Oeste 0.2 913.6 0 83
2020-03-03 07:00:00 3.3 5 Sudoeste 16 Oeste 0 913.2 -0.5 72
2020-03-03 06:00:00 3.1 9 Oeste 18 Oeste 0 913.5 -1 73
2020-03-03 05:00:00 2.8 4 Sudoeste 18 Noroeste 0 913.6 -1.1 76
2020-03-03 04:00:00 1.4 7 Noroeste 14 Noroeste 0 913.7 -1.1 77
2020-03-03 03:00:00 0.3 6 Sudeste 9 Noroeste 0 914.5 -0.2 80
2020-03-03 02:00:00 1.5 8 Noroeste 15 Noroeste 0 914.7 1 74
2020-03-03 01:00:00 2.1 12 Noroeste 17 Oeste 0 914.8 1.8 72
2020-03-03 00:00:00 2.3 2 Nordeste 17 Noroeste 0 914.7 2.7 73